createdAt,value
2023-01-30T00:02:21.563Z,38.22
2023-01-30T00:07:24.299Z,40.70
2023-01-30T00:12:28.258Z,33.72
2023-01-30T00:17:33.357Z,41.23
2023-01-30T00:22:36.034Z,39.45
2023-01-30T00:27:38.608Z,43.70
2023-01-30T00:32:41.309Z,34.88
2023-01-30T00:37:44.005Z,37.22
2023-01-30T00:43:05.113Z,40.45
2023-01-30T00:48:07.812Z,33.58
2023-01-30T00:53:15.343Z,32.10
2023-01-30T00:58:18.825Z,34.70
2023-01-30T01:03:23.053Z,28.02
2023-01-30T01:08:25.620Z,27.35
2023-01-30T01:13:28.269Z,28.00
2023-01-30T01:18:30.855Z,24.77
2023-01-30T01:23:33.561Z,27.67
2023-01-30T01:28:37.228Z,25.90
2023-01-30T01:33:40.358Z,29.88
2023-01-30T01:38:43.286Z,26.75
2023-01-30T01:44:08.043Z,16.55
2023-01-30T01:49:29.454Z,20.63
2023-01-30T01:54:54.420Z,21.65
2023-01-30T02:00:05.717Z,20.17
2023-01-30T02:05:17.693Z,23.73
2023-01-30T02:10:27.460Z,24.60
2023-01-30T02:15:30.533Z,27.85
2023-01-30T02:21:12.571Z,24.50
2023-01-30T02:27:10.506Z,28.52
2023-01-30T02:32:31.611Z,19.38
2023-01-30T02:37:54.068Z,16.63
2023-01-30T02:43:22.420Z,20.20
2023-01-30T02:48:55.656Z,17.02
2023-01-30T02:54:00.603Z,19.38
2023-01-30T02:59:07.098Z,16.75
2023-01-30T03:05:05.914Z,16.33
2023-01-30T03:10:29.874Z,14.57
2023-01-30T03:15:46.430Z,7.25
2023-01-30T03:20:51.575Z,12.55
2023-01-30T03:25:54.767Z,14.80
2023-01-30T03:30:57.584Z,13.95
2023-01-30T03:36:00.187Z,7.75
2023-01-30T03:41:04.063Z,10.82
2023-01-30T03:46:08.054Z,12.25
2023-01-30T03:51:12.705Z,12.98
2023-01-30T03:56:15.408Z,10.88
2023-01-30T04:01:18.737Z,10.23
2023-01-30T04:06:25.697Z,10.75
2023-01-30T04:11:28.743Z,9.38
2023-01-30T04:16:31.577Z,9.45
2023-01-30T04:22:12.472Z,11.70
2023-01-30T04:27:15.262Z,8.88
2023-01-30T04:32:36.013Z,13.40
2023-01-30T04:37:59.574Z,10.27
2023-01-30T04:43:03.267Z,11.10
2023-01-30T04:48:30.996Z,9.73
2023-01-30T04:53:36.370Z,8.50
2023-01-30T04:58:39.144Z,9.10
2023-01-30T05:03:44.146Z,9.77
2023-01-30T05:08:50.640Z,9.83
2023-01-30T05:13:54.355Z,8.43
2023-01-30T05:18:57.209Z,8.05
2023-01-30T05:24:00.038Z,9.27
2023-01-30T05:29:02.873Z,5.70
2023-01-30T05:34:05.693Z,5.88
2023-01-30T05:39:09.024Z,6.70
2023-01-30T05:44:12.453Z,6.15
2023-01-30T05:49:15.492Z,6.10
2023-01-30T05:54:18.636Z,4.93
2023-01-30T05:59:24.331Z,4.20
2023-01-30T06:04:26.902Z,5.78
2023-01-30T06:09:29.487Z,5.65
2023-01-30T06:14:32.394Z,5.43
2023-01-30T06:19:35.045Z,4.13
2023-01-30T06:24:37.901Z,6.40
2023-01-30T06:29:41.172Z,5.68
2023-01-30T06:34:43.707Z,5.10
2023-01-30T06:39:46.460Z,5.22
2023-01-30T06:44:49.259Z,5.05
2023-01-30T06:49:52.151Z,4.38
2023-01-30T06:54:56.336Z,4.25
2023-01-30T06:59:58.910Z,4.55
2023-01-30T07:05:02.898Z,4.45
2023-01-30T07:10:08.934Z,4.30
2023-01-30T07:15:12.494Z,4.38
2023-01-30T07:20:15.257Z,4.65
2023-01-30T07:25:22.956Z,5.05
2023-01-30T07:30:26.198Z,5.45
2023-01-30T07:35:32.261Z,5.15
2023-01-30T07:40:53.625Z,5.53
2023-01-30T07:45:56.441Z,5.50
2023-01-30T07:50:59.119Z,5.10
2023-01-30T07:56:07.600Z,4.68
2023-01-30T08:01:10.227Z,4.35
2023-01-30T08:06:13.995Z,3.58
2023-01-30T08:11:18.327Z,4.60
2023-01-30T08:16:21.572Z,5.13
2023-01-30T08:21:25.172Z,4.95
2023-01-30T08:26:28.544Z,4.47
2023-01-30T08:31:31.958Z,5.10
2023-01-30T08:36:34.784Z,4.57
2023-01-30T08:41:37.292Z,3.50
2023-01-30T08:46:41.333Z,4.37
2023-01-30T08:51:43.969Z,4.20
2023-01-30T08:56:46.903Z,4.70
2023-01-30T09:01:50.653Z,5.35
2023-01-30T09:06:53.244Z,5.88
2023-01-30T09:11:55.819Z,5.45
2023-01-30T09:16:58.603Z,4.40
2023-01-30T09:22:02.337Z,5.20
2023-01-30T09:27:05.102Z,5.90
2023-01-30T09:32:08.025Z,5.65
2023-01-30T09:37:10.644Z,4.55
2023-01-30T09:42:40.380Z,4.60
2023-01-30T09:48:09.753Z,4.53
2023-01-30T09:53:34.413Z,4.68
2023-01-30T10:04:16.252Z,5.22
2023-01-30T10:09:46.746Z,4.15
2023-01-30T10:15:14.683Z,6.22
2023-01-30T10:20:23.857Z,5.07
2023-01-30T10:25:31.599Z,5.38
2023-01-30T10:30:34.773Z,3.47
2023-01-30T10:35:39.699Z,5.05
2023-01-30T12:28:49.479Z,6.40
2023-01-30T12:33:55.391Z,4.75
2023-01-30T12:39:16.615Z,4.90
2023-01-30T12:44:37.355Z,6.60
2023-01-30T12:50:21.523Z,4.72
2023-01-30T12:56:00.710Z,4.32
2023-01-30T13:01:34.910Z,4.10
2023-01-30T13:07:07.976Z,5.50
2023-01-30T13:12:35.112Z,5.72
2023-01-30T13:18:00.096Z,6.80
2023-01-30T13:23:35.855Z,5.07
2023-01-30T13:28:55.452Z,5.20
2023-01-30T13:34:13.239Z,4.47
2023-01-30T13:39:20.060Z,4.65
2023-01-30T13:44:39.409Z,5.80
2023-01-30T13:50:12.082Z,5.57
2023-01-30T13:55:14.803Z,4.65
2023-01-30T14:00:42.199Z,4.75
2023-01-30T14:05:53.852Z,5.50
2023-01-30T14:10:57.645Z,5.15
2023-01-30T14:16:02.742Z,5.07
2023-01-30T14:21:17.579Z,6.05
2023-01-30T14:27:00.112Z,5.28
2023-01-30T14:32:23.149Z,4.95
2023-01-30T14:37:46.813Z,3.75
2023-01-30T14:43:14.950Z,5.13
2023-01-30T14:48:38.648Z,4.95
2023-01-30T14:54:16.934Z,4.17
2023-01-30T14:59:22.659Z,5.32
2023-01-30T15:04:51.889Z,4.20
2023-01-30T15:10:31.055Z,4.97
2023-01-30T15:15:42.394Z,5.60
2023-01-30T15:21:15.848Z,4.80
2023-01-30T15:26:27.654Z,5.87
2023-01-30T15:31:30.424Z,4.15
2023-01-30T15:36:35.713Z,4.30
2023-01-30T15:41:42.689Z,4.25
2023-01-30T15:47:24.645Z,5.07
2023-01-30T15:52:45.140Z,4.75
2023-01-30T15:57:52.146Z,5.15
2023-01-30T16:02:55.093Z,5.60
2023-01-30T16:07:59.008Z,5.47
2023-01-30T16:13:04.145Z,5.00
2023-01-30T16:18:31.673Z,4.07
2023-01-30T16:23:42.402Z,6.18
2023-01-30T16:28:45.430Z,5.10
2023-01-30T16:33:52.855Z,4.10
2023-01-30T16:38:55.971Z,4.15
2023-01-30T16:44:24.709Z,4.40
2023-01-30T16:49:43.008Z,5.43
2023-01-30T16:54:57.235Z,6.28
2023-01-30T17:00:00.596Z,4.63
2023-01-30T17:05:18.784Z,4.85
2023-01-30T17:10:40.253Z,4.47
2023-01-30T17:15:43.381Z,5.40
2023-01-30T17:20:51.195Z,4.82
2023-01-30T17:25:53.828Z,4.47
2023-01-30T17:30:56.415Z,5.20
2023-01-30T17:36:01.610Z,5.03
2023-01-30T17:41:04.321Z,5.10
2023-01-30T17:46:08.522Z,5.90
2023-01-30T17:51:14.136Z,4.53
2023-01-30T17:56:48.249Z,4.30
2023-01-30T18:01:52.307Z,5.53
2023-01-30T18:07:02.218Z,4.60
2023-01-30T18:12:05.109Z,4.65
2023-01-30T18:17:08.196Z,4.93
2023-01-30T18:22:10.979Z,4.88
2023-01-30T18:27:13.656Z,3.67
2023-01-30T18:32:16.267Z,6.32
2023-01-30T18:37:18.941Z,4.50
2023-01-30T18:42:22.621Z,3.92
2023-01-30T18:47:25.228Z,4.10
2023-01-30T18:52:27.798Z,5.10
2023-01-30T18:57:30.664Z,4.10
2023-01-30T19:02:33.577Z,4.38
2023-01-30T19:07:36.779Z,3.63
2023-01-30T19:12:57.851Z,4.03
2023-01-30T19:18:01.689Z,3.83
2023-01-30T19:23:06.977Z,4.63
2023-01-30T19:28:10.709Z,3.28
2023-01-30T19:33:31.774Z,4.43
2023-01-30T19:38:34.601Z,4.28
2023-01-30T19:43:40.766Z,4.28
2023-01-30T19:48:44.769Z,5.55
2023-01-30T19:53:54.303Z,5.72
2023-01-30T19:58:58.728Z,5.18
2023-01-30T20:04:02.550Z,5.95
2023-01-30T20:09:07.511Z,5.43
2023-01-30T20:14:11.832Z,5.90
2023-01-30T20:19:16.750Z,5.05
2023-01-30T20:24:19.455Z,4.32
2023-01-30T20:29:22.102Z,4.45
2023-01-30T20:34:24.817Z,4.47
2023-01-30T20:39:27.561Z,4.55
2023-01-30T20:44:30.371Z,4.97
2023-01-30T20:49:34.191Z,5.00
2023-01-30T20:54:37.992Z,4.17
2023-01-30T20:59:42.228Z,6.03
2023-01-30T21:04:44.932Z,4.75
2023-01-30T21:09:47.679Z,3.72
2023-01-30T21:14:51.440Z,4.00
2023-01-30T21:19:54.148Z,4.70
2023-01-30T21:24:57.460Z,4.68
2023-01-30T21:30:00.532Z,4.22
2023-01-30T21:35:03.737Z,4.47
2023-01-30T21:40:26.603Z,4.22
2023-01-30T21:45:29.200Z,4.65
2023-01-30T21:50:33.418Z,5.55
2023-01-30T21:55:37.088Z,4.55
2023-01-30T22:00:41.307Z,5.22
2023-01-30T22:05:45.703Z,4.32
2023-01-30T22:10:48.360Z,5.43
2023-01-30T22:15:50.988Z,3.75
2023-01-30T22:20:54.039Z,5.00
2023-01-30T22:25:56.660Z,6.47
2023-01-30T22:31:04.393Z,5.75
2023-01-30T22:36:08.330Z,5.93
2023-01-30T22:41:14.766Z,6.47
2023-01-30T22:46:19.434Z,5.80
2023-01-30T22:51:24.252Z,5.75
2023-01-30T22:56:29.807Z,6.97
2023-01-30T23:01:35.386Z,6.45
2023-01-30T23:06:39.212Z,6.07
2023-01-30T23:12:10.713Z,6.55
2023-01-30T23:17:32.040Z,4.55
2023-01-30T23:22:54.362Z,4.28
2023-01-30T23:27:57.976Z,5.88
2023-01-30T23:33:00.577Z,4.57
2023-01-30T23:38:15.511Z,4.30
2023-01-30T23:43:18.951Z,5.93
2023-01-30T23:48:21.480Z,5.03
2023-01-30T23:53:24.069Z,5.20
2023-01-30T23:58:27.064Z,3.85
